createdAt,value
2023-05-22T00:02:15.402Z,13.01
2023-05-22T00:04:46.874Z,13.05
2023-05-22T00:07:15.278Z,13.07
2023-05-22T00:09:43.528Z,13.08
2023-05-22T00:12:11.623Z,13.10
2023-05-22T00:14:39.825Z,13.13
2023-05-22T00:17:07.997Z,13.13
2023-05-22T00:19:36.510Z,13.06
2023-05-22T00:22:06.795Z,13.02
2023-05-22T00:24:34.855Z,12.98
2023-05-22T00:27:02.968Z,13.00
2023-05-22T00:29:31.299Z,12.99
2023-05-22T00:31:59.650Z,12.95
2023-05-22T00:34:28.079Z,12.94
2023-05-22T00:36:56.177Z,12.93
2023-05-22T00:39:25.715Z,12.88
2023-05-22T00:41:54.186Z,12.90
2023-05-22T00:44:23.230Z,12.91
2023-05-22T00:46:52.273Z,12.90
2023-05-22T00:49:20.816Z,12.92
2023-05-22T00:51:49.112Z,12.89
2023-05-22T00:54:18.154Z,12.92
2023-05-22T00:56:47.955Z,12.91
2023-05-22T00:59:17.098Z,12.92
2023-05-22T01:01:45.349Z,12.90
2023-05-22T01:04:15.790Z,12.90
2023-05-22T01:06:47.852Z,12.90
2023-05-22T01:09:16.383Z,12.87
2023-05-22T01:11:49.918Z,12.87
2023-05-22T01:14:24.887Z,12.83
2023-05-22T01:16:56.362Z,12.81
2023-05-22T01:19:39.642Z,12.83
2023-05-22T01:22:14.314Z,12.83
2023-05-22T01:24:54.306Z,12.81
2023-05-22T01:27:49.883Z,12.83
2023-05-22T01:30:29.333Z,12.81
2023-05-22T01:32:59.889Z,12.85
2023-05-22T01:35:29.205Z,12.86
2023-05-22T01:37:58.808Z,12.89
2023-05-22T01:40:27.334Z,12.89
2023-05-22T01:42:55.467Z,12.91
2023-05-22T01:45:25.641Z,12.94
2023-05-22T01:47:54.011Z,12.95
2023-05-22T01:50:23.868Z,12.96
2023-05-22T01:52:55.504Z,12.96
2023-05-22T01:55:27.636Z,12.98
2023-05-22T01:57:59.478Z,12.98
2023-05-22T02:00:29.255Z,13.00
2023-05-22T02:02:58.938Z,13.01
2023-05-22T02:05:31.078Z,13.00
2023-05-22T02:08:02.198Z,13.01
2023-05-22T02:10:30.840Z,13.01
2023-05-22T02:12:59.383Z,13.01
2023-05-22T02:15:27.715Z,12.97
2023-05-22T02:17:57.037Z,12.98
2023-05-22T02:20:25.231Z,12.91
2023-05-22T02:22:54.993Z,12.94
2023-05-22T02:25:23.117Z,12.93
2023-05-22T02:27:51.446Z,12.86
2023-05-22T02:30:19.763Z,12.76
2023-05-22T02:32:51.069Z,12.79
2023-05-22T02:35:19.172Z,12.79
2023-05-22T02:37:47.412Z,12.76
2023-05-22T02:40:17.046Z,12.71
2023-05-22T02:42:45.335Z,12.66
2023-05-22T02:45:14.205Z,12.60
2023-05-22T02:47:43.186Z,12.54
2023-05-22T02:50:11.815Z,12.56
2023-05-22T02:52:40.123Z,12.54
2023-05-22T02:55:09.172Z,12.51
2023-05-22T02:57:38.925Z,12.54
2023-05-22T03:00:11.705Z,12.51
2023-05-22T03:02:40.589Z,12.52
2023-05-22T03:05:11.074Z,12.43
2023-05-22T03:07:40.230Z,12.34
2023-05-22T03:10:08.798Z,12.21
2023-05-22T03:12:38.501Z,12.22
2023-05-22T03:15:07.027Z,12.13
2023-05-22T03:17:35.962Z,12.10
2023-05-22T03:20:05.538Z,12.14
2023-05-22T03:22:34.025Z,12.07
2023-05-22T03:25:02.195Z,12.00
2023-05-22T03:27:31.111Z,11.98
2023-05-22T03:30:00.793Z,11.87
2023-05-22T03:32:29.267Z,11.81
2023-05-22T03:34:58.938Z,11.78
2023-05-22T03:37:27.127Z,11.67
2023-05-22T03:39:55.467Z,11.59
2023-05-22T03:42:28.220Z,11.61
2023-05-22T03:44:57.512Z,11.48
2023-05-22T03:47:28.501Z,11.46
2023-05-22T03:49:56.701Z,11.39
2023-05-22T03:52:24.869Z,11.29
2023-05-22T03:54:53.714Z,11.30
2023-05-22T03:57:21.889Z,11.23
2023-05-22T03:59:50.347Z,11.26
2023-05-22T04:02:18.743Z,11.28
2023-05-22T04:04:48.543Z,11.23
2023-05-22T04:07:18.658Z,11.25
2023-05-22T04:09:46.827Z,11.23
2023-05-22T04:12:14.984Z,11.24
2023-05-22T04:14:44.545Z,11.20
2023-05-22T04:17:13.066Z,11.16
2023-05-22T04:19:41.177Z,11.15
2023-05-22T04:22:10.840Z,11.13
2023-05-22T04:24:40.153Z,11.10
2023-05-22T04:27:08.832Z,11.09
2023-05-22T04:29:37.729Z,11.00
2023-05-22T04:32:06.382Z,11.00
2023-05-22T04:34:37.498Z,10.96
2023-05-22T04:37:06.321Z,10.87
2023-05-22T04:39:36.319Z,10.93
2023-05-22T04:42:06.042Z,10.91
2023-05-22T04:44:34.620Z,10.90
2023-05-22T04:47:03.555Z,10.86
2023-05-22T04:49:33.866Z,10.87
2023-05-22T04:52:04.979Z,10.86
2023-05-22T04:54:33.033Z,10.88
2023-05-22T04:57:04.611Z,10.85
2023-05-22T04:59:33.708Z,10.84
2023-05-22T05:02:01.785Z,10.83
2023-05-22T05:04:29.924Z,10.82
2023-05-22T05:06:59.041Z,10.83
2023-05-22T05:09:27.342Z,10.82
2023-05-22T05:11:56.954Z,10.81
2023-05-22T05:14:27.110Z,10.81
2023-05-22T05:16:55.336Z,10.75
2023-05-22T05:19:23.825Z,10.67
2023-05-22T05:21:52.551Z,10.61
2023-05-22T05:24:22.236Z,10.53
2023-05-22T05:26:51.280Z,10.53
2023-05-22T05:29:21.462Z,10.50
2023-05-22T05:31:57.683Z,10.55
2023-05-22T05:34:48.189Z,10.52
2023-05-22T05:37:27.300Z,10.53
2023-05-22T05:39:58.520Z,10.56
2023-05-22T05:42:26.861Z,10.49
2023-05-22T05:44:58.384Z,10.47
2023-05-22T05:47:29.907Z,10.42
2023-05-22T05:49:58.406Z,10.36
2023-05-22T05:52:32.791Z,10.40
2023-05-22T05:55:04.486Z,10.42
2023-05-22T05:57:32.884Z,10.44
2023-05-22T06:00:01.310Z,10.41
2023-05-22T06:02:56.915Z,10.43
2023-05-22T06:05:43.530Z,10.51
2023-05-22T06:08:28.357Z,10.51
2023-05-22T06:10:56.789Z,10.52
2023-05-22T06:13:34.958Z,10.58
2023-05-22T06:16:05.808Z,10.57
2023-05-22T06:18:37.262Z,10.82
2023-05-22T06:21:07.101Z,11.03
2023-05-22T06:23:35.964Z,11.26
2023-05-22T06:26:05.255Z,11.38
2023-05-22T06:28:34.030Z,11.48
2023-05-22T06:31:03.804Z,11.54
2023-05-22T06:33:34.644Z,11.53
2023-05-22T06:36:04.651Z,11.53
2023-05-22T06:38:34.057Z,11.52
2023-05-22T06:41:02.999Z,11.69
2023-05-22T06:43:31.229Z,11.81
2023-05-22T06:46:08.828Z,11.92
2023-05-22T06:48:57.509Z,11.87
2023-05-22T06:51:29.570Z,11.91
2023-05-22T06:54:07.051Z,11.77
2023-05-22T06:56:37.602Z,11.69
2023-05-22T06:59:11.493Z,11.62
2023-05-22T07:02:02.671Z,11.53
2023-05-22T07:04:49.683Z,11.55
2023-05-22T07:07:24.342Z,11.57
2023-05-22T07:09:52.839Z,11.58
2023-05-22T07:12:26.164Z,11.59
2023-05-22T07:14:57.081Z,11.57
2023-05-22T07:17:26.951Z,11.75
2023-05-22T07:19:56.138Z,11.95
2023-05-22T07:22:26.301Z,12.32
2023-05-22T07:24:56.279Z,12.79
2023-05-22T07:27:27.353Z,13.30
2023-05-22T07:29:55.824Z,13.75
2023-05-22T07:32:24.625Z,14.00
2023-05-22T07:34:53.538Z,14.16
2023-05-22T07:37:22.443Z,14.53
2023-05-22T07:39:52.563Z,14.96
2023-05-22T07:42:21.869Z,15.49
2023-05-22T07:44:54.679Z,15.76
2023-05-22T07:47:23.254Z,16.12
2023-05-22T07:49:51.956Z,16.33
2023-05-22T07:52:21.850Z,16.66
2023-05-22T07:54:53.157Z,16.94
2023-05-22T07:57:23.109Z,16.58
2023-05-22T07:59:52.618Z,16.35
2023-05-22T08:02:20.727Z,16.21
2023-05-22T08:04:50.543Z,15.90
2023-05-22T08:07:18.708Z,15.83
2023-05-22T08:09:46.963Z,15.52
2023-05-22T08:12:16.870Z,15.21
2023-05-22T08:14:44.921Z,15.22
2023-05-22T08:17:13.098Z,15.42
2023-05-22T08:19:41.925Z,15.92
2023-05-22T08:22:10.131Z,16.13
2023-05-22T08:24:38.417Z,16.11
2023-05-22T08:27:06.731Z,16.15
2023-05-22T08:29:36.504Z,15.68
2023-05-22T08:32:05.064Z,15.61
2023-05-22T08:34:33.991Z,15.13
2023-05-22T08:37:02.349Z,14.60
2023-05-22T08:39:31.401Z,14.62
2023-05-22T08:41:59.699Z,14.51
2023-05-22T08:44:28.145Z,14.67
2023-05-22T08:47:00.307Z,14.88
2023-05-22T08:49:28.676Z,15.24
2023-05-22T08:52:01.666Z,15.70
2023-05-22T08:54:30.255Z,16.17
2023-05-22T08:56:58.940Z,16.30
2023-05-22T08:59:27.101Z,16.19
2023-05-22T09:01:55.195Z,16.38
2023-05-22T09:04:25.681Z,16.14
2023-05-22T09:06:55.287Z,15.69
2023-05-22T09:09:23.870Z,15.70
2023-05-22T09:11:52.306Z,16.28
2023-05-22T09:14:20.614Z,16.21
2023-05-22T09:16:49.572Z,16.52
2023-05-22T09:19:17.818Z,16.25
2023-05-22T09:21:48.076Z,16.12
2023-05-22T09:24:16.393Z,16.37
2023-05-22T09:26:44.896Z,16.28
2023-05-22T09:29:12.994Z,16.16
2023-05-22T09:31:45.138Z,16.18
2023-05-22T09:34:16.017Z,15.85
2023-05-22T09:36:44.791Z,15.62
2023-05-22T09:39:14.486Z,15.76
2023-05-22T09:41:42.576Z,16.29
2023-05-22T09:44:14.583Z,16.21
2023-05-22T09:46:43.516Z,16.71
2023-05-22T09:49:15.064Z,16.87
2023-05-22T09:51:47.891Z,17.17
2023-05-22T09:54:18.039Z,17.54
2023-05-22T09:56:50.288Z,18.56
2023-05-22T09:59:21.920Z,18.98
2023-05-22T10:01:51.775Z,19.37
2023-05-22T10:04:20.707Z,19.70
2023-05-22T10:06:51.518Z,19.39
2023-05-22T10:09:23.385Z,20.17
2023-05-22T10:11:54.546Z,20.27
2023-05-22T10:14:23.493Z,20.67
2023-05-22T10:16:52.224Z,20.96
2023-05-22T10:19:20.874Z,20.93
2023-05-22T10:21:49.569Z,20.89
2023-05-22T10:24:18.378Z,21.13
2023-05-22T10:26:48.826Z,21.56
2023-05-22T10:29:19.282Z,21.93
2023-05-22T10:31:55.061Z,22.55
2023-05-22T10:34:31.474Z,22.37
2023-05-22T10:37:18.047Z,22.50
2023-05-22T10:39:55.885Z,23.06
2023-05-22T10:42:25.655Z,23.53
2023-05-22T10:44:54.515Z,23.19
2023-05-22T10:47:22.881Z,23.01
2023-05-22T10:49:51.511Z,22.94
2023-05-22T10:52:22.041Z,22.48
2023-05-22T10:54:53.730Z,22.85
2023-05-22T10:57:25.952Z,22.32
2023-05-22T11:00:07.487Z,22.33
2023-05-22T11:02:39.535Z,22.29
2023-05-22T11:05:26.439Z,22.53
2023-05-22T11:08:10.432Z,21.81
2023-05-22T11:10:54.854Z,21.87
2023-05-22T11:13:23.421Z,21.77
2023-05-22T11:15:53.405Z,21.62
2023-05-22T11:18:22.285Z,21.46
2023-05-22T11:20:50.995Z,21.01
2023-05-22T11:23:19.935Z,20.47
2023-05-22T11:25:48.040Z,20.49
2023-05-22T11:28:16.432Z,20.65
2023-05-22T11:30:46.264Z,20.28
2023-05-22T11:33:16.631Z,20.62
2023-05-22T11:35:46.133Z,21.47
2023-05-22T11:38:16.032Z,20.97
2023-05-22T11:40:44.114Z,21.29
2023-05-22T11:43:12.202Z,21.63
2023-05-22T11:45:41.311Z,22.17
2023-05-22T11:48:09.956Z,21.99
2023-05-22T11:50:42.467Z,22.11
2023-05-22T11:53:11.115Z,21.43
2023-05-22T11:55:39.161Z,20.91
2023-05-22T11:58:07.242Z,20.88
2023-05-22T12:00:35.445Z,20.82
2023-05-22T12:03:04.406Z,21.03
2023-05-22T12:05:33.000Z,21.28
2023-05-22T12:08:02.927Z,21.65
2023-05-22T12:10:32.749Z,21.78
2023-05-22T12:13:00.844Z,22.11
2023-05-22T12:15:29.037Z,21.55
2023-05-22T12:17:57.616Z,21.90
2023-05-22T12:20:30.154Z,21.89
2023-05-22T12:22:59.064Z,21.36
2023-05-22T12:25:34.545Z,21.50
2023-05-22T12:28:02.743Z,21.64
2023-05-22T12:30:40.763Z,22.13
2023-05-22T12:33:13.512Z,22.29
2023-05-22T12:35:42.575Z,22.54
2023-05-22T12:38:13.678Z,22.36
2023-05-22T12:40:43.290Z,22.59
2023-05-22T12:43:11.866Z,21.69
2023-05-22T12:45:42.352Z,21.13
2023-05-22T12:48:10.677Z,21.21
2023-05-22T12:50:39.061Z,21.12
2023-05-22T12:53:07.825Z,21.49
2023-05-22T12:55:36.230Z,21.55
2023-05-22T12:58:06.082Z,21.84
2023-05-22T13:00:34.232Z,21.80
2023-05-22T13:03:03.066Z,21.28
2023-05-22T13:05:31.436Z,20.60
2023-05-22T13:07:59.696Z,20.31
2023-05-22T13:10:28.100Z,20.26
2023-05-22T13:12:56.487Z,20.83
2023-05-22T13:15:29.581Z,21.23
2023-05-22T13:17:57.780Z,21.17
2023-05-22T13:20:26.320Z,21.22
2023-05-22T13:22:55.066Z,21.60
2023-05-22T13:25:23.466Z,21.11
2023-05-22T13:27:51.638Z,21.27
2023-05-22T13:30:20.501Z,21.32
2023-05-22T13:32:50.561Z,21.32
2023-05-22T13:35:19.164Z,20.71
2023-05-22T13:37:47.409Z,20.38
2023-05-22T13:40:16.180Z,20.01
2023-05-22T13:42:44.499Z,20.16
2023-05-22T13:45:13.548Z,20.81
2023-05-22T13:47:41.859Z,20.83
2023-05-22T13:50:12.021Z,20.85
2023-05-22T13:52:40.389Z,20.78
2023-05-22T13:55:09.142Z,20.44
2023-05-22T13:57:40.605Z,20.56
2023-05-22T14:00:10.219Z,20.25
2023-05-22T14:02:38.750Z,20.29
2023-05-22T14:05:07.617Z,19.85
2023-05-22T14:07:37.309Z,19.59
2023-05-22T14:10:06.036Z,20.15
2023-05-22T14:12:34.172Z,20.31
2023-05-22T14:15:02.699Z,20.28
2023-05-22T14:17:31.134Z,20.05
2023-05-22T14:19:59.978Z,19.91
2023-05-22T14:22:28.185Z,20.13
2023-05-22T14:24:57.943Z,20.50
2023-05-22T14:27:26.130Z,20.53
2023-05-22T14:29:54.336Z,20.02
2023-05-22T14:32:22.887Z,19.99
2023-05-22T14:34:52.814Z,20.03
2023-05-22T14:37:21.607Z,20.02
2023-05-22T14:39:49.716Z,20.16
2023-05-22T14:42:19.620Z,20.24
2023-05-22T14:44:47.810Z,19.85
2023-05-22T14:47:16.754Z,19.80
2023-05-22T14:49:44.950Z,19.71
2023-05-22T14:52:15.340Z,19.77
2023-05-22T14:54:43.553Z,19.93
2023-05-22T14:57:11.609Z,20.17
2023-05-22T14:59:41.258Z,20.02
2023-05-22T15:02:09.549Z,20.02
2023-05-22T15:04:38.081Z,19.73
2023-05-22T15:07:06.573Z,19.40
2023-05-22T15:09:35.082Z,19.38
2023-05-22T15:12:03.551Z,19.45
2023-05-22T15:14:31.981Z,19.26
2023-05-22T15:17:02.071Z,19.07
2023-05-22T15:19:30.303Z,18.95
2023-05-22T15:22:08.802Z,19.12
2023-05-22T15:24:44.501Z,19.36
2023-05-22T15:27:12.918Z,19.49
2023-05-22T15:29:41.051Z,19.34
2023-05-22T15:32:10.706Z,19.63
2023-05-22T15:34:38.851Z,19.56
2023-05-22T15:37:07.293Z,19.61
2023-05-22T15:39:35.735Z,19.61
2023-05-22T15:42:06.907Z,19.58
2023-05-22T15:44:35.536Z,19.51
2023-05-22T15:47:03.634Z,19.56
2023-05-22T15:49:33.201Z,19.46
2023-05-22T15:52:01.418Z,19.63
2023-05-22T15:54:29.808Z,19.40
2023-05-22T15:56:58.589Z,19.11
2023-05-22T15:59:26.672Z,18.88
2023-05-22T16:01:54.838Z,18.79
2023-05-22T16:04:22.996Z,18.58
2023-05-22T16:06:52.512Z,18.47
2023-05-22T16:09:20.751Z,18.66
2023-05-22T16:11:49.120Z,18.68
2023-05-22T16:14:17.659Z,18.88
2023-05-22T16:16:46.466Z,18.70
2023-05-22T16:19:41.203Z,18.55
2023-05-22T16:22:11.627Z,18.24
2023-05-22T16:24:39.798Z,18.23
2023-05-22T16:27:08.461Z,18.03
2023-05-22T16:29:36.567Z,17.70
2023-05-22T16:32:05.199Z,17.74
2023-05-22T16:34:34.132Z,17.60
2023-05-22T16:37:02.408Z,17.71
2023-05-22T16:39:32.263Z,17.69
2023-05-22T16:42:00.668Z,17.74
2023-05-22T16:44:29.216Z,17.65
2023-05-22T16:46:57.487Z,17.79
2023-05-22T16:49:25.665Z,17.98
2023-05-22T16:51:54.751Z,17.88
2023-05-22T16:54:26.998Z,17.98
2023-05-22T16:56:56.874Z,18.02
2023-05-22T16:59:24.984Z,17.95
2023-05-22T17:01:53.174Z,18.08
2023-05-22T17:04:21.269Z,18.04
2023-05-22T17:06:49.436Z,17.95
2023-05-22T17:09:17.608Z,17.94
2023-05-22T17:11:46.424Z,18.21
2023-05-22T17:14:16.290Z,17.77
2023-05-22T17:16:44.796Z,17.62
2023-05-22T17:19:13.325Z,17.81
2023-05-22T17:21:41.659Z,17.68
2023-05-22T17:24:12.631Z,17.85
2023-05-22T17:26:44.641Z,17.86
2023-05-22T17:29:13.152Z,17.77
2023-05-22T17:31:42.682Z,17.77
2023-05-22T17:34:11.050Z,17.47
2023-05-22T17:36:41.033Z,17.63
2023-05-22T17:39:10.834Z,17.78
2023-05-22T17:41:39.080Z,17.71
2023-05-22T17:44:07.235Z,17.80
2023-05-22T17:46:35.625Z,17.90
2023-05-22T17:49:05.301Z,17.58
2023-05-22T17:51:33.510Z,17.49
2023-05-22T17:54:01.961Z,17.23
2023-05-22T17:56:34.862Z,17.24
2023-05-22T17:59:03.572Z,17.05
2023-05-22T18:01:32.182Z,16.94
2023-05-22T18:04:05.303Z,16.98
2023-05-22T18:06:35.688Z,16.94
2023-05-22T18:09:04.634Z,16.96
2023-05-22T18:11:36.234Z,16.91
2023-05-22T18:14:05.505Z,17.00
2023-05-22T18:16:34.130Z,17.08
2023-05-22T18:19:02.498Z,17.06
2023-05-22T18:21:30.864Z,17.26
2023-05-22T18:24:03.609Z,17.23
2023-05-22T18:26:32.312Z,17.22
2023-05-22T18:29:01.437Z,17.21
2023-05-22T18:31:33.932Z,17.21
2023-05-22T18:34:02.601Z,17.17
2023-05-22T18:36:31.543Z,17.25
2023-05-22T18:39:00.180Z,17.08
2023-05-22T18:41:38.105Z,17.13
2023-05-22T18:44:09.446Z,17.15
2023-05-22T18:46:40.065Z,17.17
2023-05-22T18:49:08.382Z,17.10
2023-05-22T18:51:37.281Z,17.19
2023-05-22T18:54:07.989Z,17.03
2023-05-22T18:56:41.393Z,17.08
2023-05-22T18:59:13.168Z,17.11
2023-05-22T19:01:43.281Z,17.03
2023-05-22T19:04:11.491Z,16.97
2023-05-22T19:06:42.284Z,16.97
2023-05-22T19:09:12.954Z,16.71
2023-05-22T19:11:43.403Z,16.70
2023-05-22T19:14:12.450Z,16.78
2023-05-22T19:16:43.760Z,16.49
2023-05-22T19:19:15.579Z,16.59
2023-05-22T19:21:44.479Z,16.52
2023-05-22T19:24:13.021Z,16.43
2023-05-22T19:26:44.825Z,16.25
2023-05-22T19:29:15.293Z,16.17
2023-05-22T19:31:45.060Z,16.17
2023-05-22T19:34:14.494Z,16.07
2023-05-22T19:36:42.917Z,16.03
2023-05-22T19:39:11.129Z,15.87
2023-05-22T19:41:41.374Z,15.76
2023-05-22T19:44:14.850Z,15.66
2023-05-22T19:46:46.236Z,15.59
2023-05-22T19:49:16.223Z,15.49
2023-05-22T19:51:46.500Z,15.26
2023-05-22T19:54:16.855Z,15.24
2023-05-22T19:56:46.961Z,14.91
2023-05-22T19:59:18.384Z,14.91
2023-05-22T20:01:48.168Z,14.82
2023-05-22T20:04:17.294Z,14.67
2023-05-22T20:06:45.811Z,14.61
2023-05-22T20:09:15.258Z,14.60
2023-05-22T20:11:46.112Z,14.49
2023-05-22T20:14:18.097Z,14.45
2023-05-22T20:16:46.670Z,14.42
2023-05-22T20:19:15.521Z,14.34
2023-05-22T20:21:44.517Z,14.20
2023-05-22T20:24:19.032Z,14.12
2023-05-22T20:26:47.341Z,14.01
2023-05-22T20:29:17.214Z,13.85
2023-05-22T20:31:45.369Z,13.73
2023-05-22T20:34:13.552Z,13.60
2023-05-22T20:36:42.666Z,13.49
2023-05-22T20:39:12.164Z,13.29
2023-05-22T20:41:40.648Z,13.22
2023-05-22T20:44:09.917Z,13.07
2023-05-22T20:46:40.369Z,12.95
2023-05-22T20:49:09.408Z,12.83
2023-05-22T20:51:37.589Z,12.67
2023-05-22T20:54:07.905Z,12.50
2023-05-22T20:56:36.340Z,12.44
2023-05-22T20:59:11.069Z,12.32
2023-05-22T21:01:41.436Z,12.15
2023-05-22T21:04:09.857Z,12.06
2023-05-22T21:06:38.625Z,11.98
2023-05-22T21:09:07.088Z,11.86
2023-05-22T21:11:35.518Z,11.75
2023-05-22T21:14:03.753Z,11.62
2023-05-22T21:16:31.891Z,11.50
2023-05-22T21:19:01.559Z,11.43
2023-05-22T21:21:30.100Z,11.36
2023-05-22T21:23:58.274Z,11.26
2023-05-22T21:26:27.560Z,11.16
2023-05-22T21:28:55.921Z,11.05
2023-05-22T21:31:24.148Z,10.98
2023-05-22T21:33:52.690Z,10.94
2023-05-22T21:36:23.190Z,10.85
2023-05-22T21:38:53.214Z,10.81
2023-05-22T21:41:22.050Z,10.75
2023-05-22T21:43:50.826Z,10.67
2023-05-22T21:46:19.023Z,10.57
2023-05-22T21:48:48.611Z,10.40
2023-05-22T21:51:17.299Z,10.33
2023-05-22T21:53:47.652Z,10.24
2023-05-22T21:56:15.917Z,10.21
2023-05-22T21:58:44.688Z,10.17
2023-05-22T22:01:13.150Z,10.10
2023-05-22T22:03:42.007Z,10.00
2023-05-22T22:06:10.450Z,9.92
2023-05-22T22:08:38.619Z,9.83
2023-05-22T22:11:08.402Z,9.80
2023-05-22T22:13:36.551Z,9.66
2023-05-22T22:16:04.767Z,9.65
2023-05-22T22:18:34.299Z,9.61
2023-05-22T22:21:02.918Z,9.52
2023-05-22T22:23:31.082Z,9.48
2023-05-22T22:25:59.364Z,9.48
2023-05-22T22:28:29.243Z,9.43
2023-05-22T22:30:57.876Z,9.43
2023-05-22T22:33:26.471Z,9.40
2023-05-22T22:35:54.669Z,9.36
2023-05-22T22:38:23.457Z,9.37
2023-05-22T22:40:51.899Z,9.36
2023-05-22T22:43:20.981Z,9.35
2023-05-22T22:45:53.385Z,9.34
2023-05-22T22:48:22.506Z,9.29
2023-05-22T22:50:52.583Z,9.25
2023-05-22T22:53:20.988Z,9.20
2023-05-22T22:55:50.395Z,9.16
2023-05-22T22:58:21.743Z,9.15
2023-05-22T23:00:51.904Z,9.10
2023-05-22T23:03:20.504Z,9.07
2023-05-22T23:05:49.513Z,9.06
2023-05-22T23:08:18.182Z,9.02
2023-05-22T23:10:46.730Z,8.95
2023-05-22T23:13:15.117Z,8.90
2023-05-22T23:15:43.578Z,8.87
2023-05-22T23:18:14.177Z,8.89
2023-05-22T23:20:42.354Z,8.87
2023-05-22T23:23:10.582Z,8.86
2023-05-22T23:25:39.222Z,8.82
2023-05-22T23:28:08.410Z,8.79
2023-05-22T23:30:36.591Z,8.78
2023-05-22T23:33:06.246Z,8.77
2023-05-22T23:35:35.984Z,8.72
2023-05-22T23:38:04.237Z,8.69
2023-05-22T23:40:32.545Z,8.62
2023-05-22T23:43:00.623Z,8.60
2023-05-22T23:45:28.994Z,8.58
2023-05-22T23:47:57.391Z,8.56
2023-05-22T23:50:25.559Z,8.50
2023-05-22T23:52:55.840Z,8.48
2023-05-22T23:55:24.360Z,8.41
2023-05-22T23:57:52.451Z,8.38
